createdAt,value
2022-11-17T06:53:41.738Z,11.98
2022-11-17T06:55:13.351Z,10.70
2022-11-17T06:56:44.912Z,9.95
2022-11-17T06:58:16.448Z,9.13
2022-11-17T06:59:48.009Z,10.02
2022-11-17T07:01:19.624Z,10.02
2022-11-17T07:02:51.223Z,9.15
2022-11-17T07:04:22.800Z,8.93
2022-11-17T07:05:54.349Z,9.18
2022-11-17T07:07:25.951Z,9.00
2022-11-17T07:08:57.563Z,9.18
2022-11-17T07:10:29.476Z,8.57
2022-11-17T07:12:01.127Z,8.45
2022-11-17T07:13:33.004Z,8.27
2022-11-17T07:15:05.087Z,7.95
2022-11-17T07:16:36.636Z,8.73
2022-11-17T07:18:08.199Z,7.28
2022-11-17T07:19:39.731Z,6.45
2022-11-17T07:21:12.516Z,6.82
2022-11-17T07:22:44.072Z,7.77
2022-11-17T07:24:15.643Z,7.20
2022-11-17T07:25:47.222Z,7.60
2022-11-17T07:27:18.795Z,7.53
2022-11-17T07:28:50.408Z,7.35
2022-11-17T07:30:22.599Z,7.03
2022-11-17T07:31:54.165Z,6.90
2022-11-17T07:33:25.724Z,7.07
2022-11-17T07:34:57.292Z,6.03
2022-11-17T07:36:28.840Z,6.23
2022-11-17T07:38:00.537Z,6.32
2022-11-17T07:39:32.091Z,6.43
2022-11-17T07:41:03.825Z,6.75
2022-11-17T07:42:35.382Z,5.90
2022-11-17T07:44:10.077Z,5.85
2022-11-17T07:45:41.609Z,5.45
2022-11-17T07:47:13.179Z,6.63
2022-11-17T07:48:44.748Z,6.25
2022-11-17T07:50:16.345Z,5.93
2022-11-17T07:51:47.893Z,7.05
2022-11-17T07:53:19.464Z,5.35
2022-11-17T07:54:51.022Z,5.63
2022-11-17T07:56:22.578Z,5.75
2022-11-17T07:57:57.845Z,5.30
2022-11-17T07:59:29.417Z,5.30
2022-11-17T08:01:21.235Z,5.20
2022-11-17T08:02:53.434Z,4.85
2022-11-17T08:04:24.989Z,4.88
2022-11-17T08:05:56.560Z,4.50
2022-11-17T08:07:28.274Z,4.50
2022-11-17T08:08:59.907Z,4.60
2022-11-17T08:10:31.485Z,4.65
2022-11-17T08:12:03.058Z,4.75
2022-11-17T08:13:34.679Z,5.60
2022-11-17T08:15:07.190Z,4.75
2022-11-17T08:16:38.804Z,4.53
2022-11-17T08:18:10.348Z,4.10
2022-11-17T08:19:41.928Z,4.97
2022-11-17T08:21:14.262Z,4.57
2022-11-17T08:22:45.824Z,5.25
2022-11-17T08:24:17.447Z,4.15
2022-11-17T08:25:49.012Z,4.30
2022-11-17T08:27:20.583Z,3.95
2022-11-17T08:28:57.909Z,4.07
2022-11-17T08:30:30.148Z,4.28
2022-11-17T08:32:01.748Z,4.53
2022-11-17T08:33:33.352Z,4.25
2022-11-17T08:35:05.308Z,3.90
2022-11-17T08:36:36.848Z,3.47
2022-11-17T08:38:08.425Z,3.88
2022-11-17T08:39:40.061Z,4.55
2022-11-17T08:41:11.641Z,4.00
2022-11-17T08:42:43.191Z,4.13
2022-11-17T08:44:14.730Z,4.25
2022-11-17T08:45:46.304Z,3.88
2022-11-17T08:47:17.858Z,3.83
2022-11-17T08:48:55.533Z,4.35
2022-11-17T08:50:28.573Z,3.78
2022-11-17T08:52:00.135Z,3.58
2022-11-17T08:53:31.694Z,4.55
2022-11-17T08:55:03.993Z,4.35
2022-11-17T08:56:35.602Z,4.57
2022-11-17T08:58:07.156Z,5.73
2022-11-17T08:59:38.718Z,4.40
2022-11-17T09:01:10.844Z,4.05
2022-11-17T09:02:42.406Z,4.50
2022-11-17T09:04:13.978Z,4.18
2022-11-17T09:05:45.908Z,4.95
2022-11-17T09:07:17.535Z,4.28
2022-11-17T09:08:49.182Z,4.28
2022-11-17T09:10:20.847Z,4.07
2022-11-17T09:11:52.414Z,4.15
2022-11-17T09:13:24.056Z,4.90
2022-11-17T09:14:55.596Z,6.57
2022-11-17T09:16:27.168Z,3.80
2022-11-17T09:17:58.732Z,4.28
2022-11-17T09:19:30.312Z,5.10
2022-11-17T09:21:02.711Z,4.57
2022-11-17T09:22:34.303Z,4.75
2022-11-17T09:24:06.060Z,4.38
2022-11-17T09:25:37.620Z,4.95
2022-11-17T09:27:09.184Z,4.97
2022-11-17T09:28:40.862Z,3.97
2022-11-17T09:30:12.673Z,4.05
2022-11-17T09:31:44.284Z,4.30
2022-11-17T09:33:15.894Z,4.40
2022-11-17T09:34:47.552Z,5.28
2022-11-17T09:36:19.231Z,3.75
2022-11-17T09:37:50.786Z,4.50
2022-11-17T09:39:22.350Z,3.95
2022-11-17T09:40:54.117Z,4.70
2022-11-17T09:42:25.811Z,5.00
2022-11-17T09:44:06.089Z,5.67
2022-11-17T09:45:37.776Z,4.35
2022-11-17T09:47:36.598Z,4.45
2022-11-17T09:49:12.551Z,4.35
2022-11-17T09:50:44.133Z,3.33
2022-11-17T09:52:19.396Z,4.10
2022-11-17T09:53:57.030Z,3.45
2022-11-17T09:55:46.123Z,4.60
2022-11-17T09:57:21.588Z,3.53
2022-11-17T09:58:56.642Z,3.80
2022-11-17T10:00:29.061Z,4.47
2022-11-17T10:02:00.654Z,4.10
2022-11-17T10:03:35.473Z,4.05
2022-11-17T10:05:31.584Z,4.70
2022-11-17T10:07:03.218Z,3.75
2022-11-17T10:08:45.446Z,4.60
2022-11-17T10:10:23.486Z,3.77
2022-11-17T10:11:59.652Z,3.83
2022-11-17T10:13:33.624Z,4.07
2022-11-17T10:15:45.801Z,4.45
2022-11-17T10:17:17.633Z,4.05
2022-11-17T10:18:49.217Z,3.60
2022-11-17T10:20:20.961Z,3.40
2022-11-17T10:22:02.363Z,3.30
2022-11-17T10:23:44.629Z,4.00
2022-11-17T10:25:34.667Z,3.15
2022-11-17T10:27:25.090Z,3.30
2022-11-17T10:29:11.301Z,3.73
2022-11-17T10:30:43.272Z,3.13
2022-11-17T10:32:14.896Z,3.95
2022-11-17T10:33:50.131Z,3.75
2022-11-17T10:35:28.677Z,3.10
2022-11-17T10:37:13.338Z,3.92
2022-11-17T10:38:49.192Z,3.53
2022-11-17T10:40:26.193Z,3.55
2022-11-17T10:41:57.883Z,3.13
2022-11-17T10:43:31.124Z,4.03
2022-11-17T10:45:02.693Z,3.15
2022-11-17T10:46:45.036Z,3.80
2022-11-17T10:48:26.415Z,4.05
2022-11-17T10:50:20.213Z,3.83
2022-11-17T10:52:27.268Z,3.22
2022-11-17T10:54:17.017Z,4.00
2022-11-17T10:56:00.202Z,3.90
2022-11-17T10:57:31.754Z,3.55
2022-11-17T10:59:09.289Z,3.13
2022-11-17T11:00:40.876Z,3.63
2022-11-17T11:02:31.917Z,2.90
2022-11-17T11:04:04.392Z,3.67
2022-11-17T11:05:35.957Z,3.28
2022-11-17T11:07:12.617Z,4.55
2022-11-17T11:08:49.464Z,4.25
2022-11-17T11:10:33.432Z,3.40
2022-11-17T11:12:05.064Z,4.18
2022-11-17T11:13:47.613Z,3.45
2022-11-17T11:15:23.130Z,4.00
2022-11-17T11:16:54.709Z,4.18
2022-11-17T11:18:27.815Z,4.03
2022-11-17T11:20:00.509Z,3.67
2022-11-17T11:21:52.626Z,3.77
2022-11-17T11:23:56.217Z,3.17
2022-11-17T11:25:40.103Z,3.63
2022-11-17T11:27:23.849Z,2.95
2022-11-17T11:29:04.993Z,5.07
2022-11-17T11:30:47.210Z,3.33
2022-11-17T11:32:24.683Z,3.97
2022-11-17T11:34:23.882Z,3.42
2022-11-17T11:36:24.538Z,3.95
2022-11-17T11:38:14.632Z,3.30
2022-11-17T11:39:49.180Z,5.10
2022-11-17T11:41:42.427Z,3.80
2022-11-17T11:43:30.416Z,5.35
2022-11-17T11:45:23.951Z,4.43
2022-11-17T11:47:13.829Z,5.13
2022-11-17T11:48:45.396Z,5.18
2022-11-17T11:50:21.317Z,4.78
2022-11-17T11:51:52.884Z,5.70
2022-11-17T11:53:37.625Z,5.47
2022-11-17T11:55:22.031Z,4.00
2022-11-17T11:56:53.590Z,3.35
2022-11-17T11:58:25.137Z,4.60
2022-11-17T12:00:05.252Z,4.50
2022-11-17T12:01:54.930Z,3.65
2022-11-17T12:03:33.332Z,3.78
2022-11-17T12:05:19.775Z,3.88
2022-11-17T12:07:29.062Z,4.60
2022-11-17T12:09:25.309Z,3.35
2022-11-17T12:11:02.811Z,3.60
2022-11-17T12:12:37.344Z,3.53
2022-11-17T12:14:13.717Z,4.07
2022-11-17T12:15:45.466Z,3.75
2022-11-17T12:17:18.477Z,3.58
2022-11-17T12:18:50.024Z,4.88
2022-11-17T12:20:31.059Z,3.60
2022-11-17T12:22:02.618Z,3.72
2022-11-17T12:24:08.077Z,3.88
2022-11-17T12:25:49.061Z,3.15
2022-11-17T12:27:34.284Z,3.53
2022-11-17T12:29:21.097Z,4.50
2022-11-17T12:30:57.336Z,4.80
2022-11-17T12:32:44.008Z,4.03
2022-11-17T12:34:21.521Z,4.07
2022-11-17T12:36:30.565Z,3.60
2022-11-17T12:38:14.968Z,3.53
2022-11-17T12:40:08.418Z,4.10
2022-11-17T12:41:49.071Z,2.80
2022-11-17T12:43:21.474Z,3.40
2022-11-17T12:44:56.808Z,3.40
2022-11-17T12:46:28.386Z,4.22
2022-11-17T12:48:26.872Z,4.30
2022-11-17T12:50:10.431Z,3.35
2022-11-17T12:51:46.268Z,2.72
2022-11-17T12:53:48.086Z,3.65
2022-11-17T12:55:25.383Z,3.17
2022-11-17T12:57:09.329Z,3.60
2022-11-17T12:58:58.713Z,3.22
2022-11-17T13:00:30.275Z,3.55
2022-11-17T13:02:18.223Z,2.90
2022-11-17T13:03:52.942Z,2.93
2022-11-17T13:05:26.495Z,2.80
2022-11-17T13:07:03.713Z,3.08
2022-11-17T13:08:35.350Z,3.40
2022-11-17T13:10:07.164Z,2.83
2022-11-17T13:11:38.751Z,2.80
2022-11-17T13:13:11.889Z,3.40
2022-11-17T13:14:59.528Z,3.00
2022-11-17T13:16:31.089Z,4.30
2022-11-17T13:18:02.661Z,2.97
2022-11-17T13:19:40.645Z,3.30
2022-11-17T13:21:29.384Z,4.57
2022-11-17T13:23:13.265Z,2.95
2022-11-17T13:24:46.489Z,3.92
2022-11-17T13:26:23.221Z,3.65
2022-11-17T13:27:59.775Z,3.08
2022-11-17T13:29:34.850Z,4.00
2022-11-17T13:31:06.427Z,3.25
2022-11-17T13:32:39.169Z,4.28
2022-11-17T13:34:10.769Z,3.65
2022-11-17T13:35:42.630Z,3.10
2022-11-17T13:37:16.138Z,2.70
2022-11-17T13:38:48.789Z,3.78
2022-11-17T13:40:21.245Z,3.42
2022-11-17T13:41:52.878Z,3.58
2022-11-17T13:43:25.112Z,4.28
2022-11-17T13:44:58.283Z,4.10
2022-11-17T13:46:29.848Z,3.22
2022-11-17T13:48:01.395Z,3.33
2022-11-17T13:49:33.725Z,3.00
2022-11-17T13:51:29.303Z,2.85
2022-11-17T13:53:21.072Z,4.05
2022-11-17T13:54:52.662Z,3.13
2022-11-17T13:56:26.940Z,3.20
2022-11-17T13:58:03.622Z,3.08
2022-11-17T13:59:36.520Z,2.50
2022-11-17T14:01:11.030Z,2.53
2022-11-17T14:03:02.980Z,3.20
2022-11-17T14:04:34.530Z,3.17
2022-11-17T14:06:10.191Z,3.90
2022-11-17T14:07:42.408Z,3.05
2022-11-17T14:09:13.963Z,4.55
2022-11-17T14:10:45.543Z,3.58
2022-11-17T14:12:17.130Z,3.45
2022-11-17T14:13:52.170Z,4.30
2022-11-17T14:15:25.194Z,3.50
2022-11-17T14:16:56.806Z,3.35
2022-11-17T14:18:28.465Z,4.13
2022-11-17T14:20:17.753Z,3.65
2022-11-17T14:22:07.909Z,4.40
2022-11-17T14:23:40.236Z,4.00
2022-11-17T14:25:12.905Z,3.35
2022-11-17T14:26:44.632Z,4.03
2022-11-17T14:28:16.778Z,4.75
2022-11-17T14:29:48.380Z,4.95
2022-11-17T14:31:19.966Z,4.57
2022-11-17T14:34:39.892Z,4.05
2022-11-17T14:36:17.587Z,6.43
2022-11-17T14:37:49.168Z,2.70
2022-11-17T14:39:20.857Z,3.97
2022-11-17T14:40:52.946Z,3.25
2022-11-17T14:42:24.510Z,3.20
2022-11-17T14:43:56.069Z,4.07
2022-11-17T14:45:27.630Z,3.78
2022-11-17T14:46:59.187Z,3.88
2022-11-17T14:48:30.729Z,3.30
2022-11-17T14:50:02.302Z,3.72
2022-11-17T14:51:34.017Z,4.38
2022-11-17T14:53:05.882Z,4.35
2022-11-17T14:54:37.443Z,3.15
2022-11-17T14:56:09.452Z,4.95
2022-11-17T14:57:41.359Z,6.30
2022-11-17T14:59:13.252Z,8.05
2022-11-17T15:00:44.978Z,9.90
2022-11-17T15:02:16.539Z,8.18
2022-11-17T15:03:48.178Z,8.65
2022-11-17T15:05:19.851Z,8.50
2022-11-17T15:06:51.511Z,8.07
2022-11-17T15:08:23.233Z,10.02
2022-11-17T15:09:54.868Z,9.95
2022-11-17T15:11:27.185Z,11.77
2022-11-17T15:12:59.218Z,12.57
2022-11-17T15:14:30.851Z,10.82
2022-11-17T15:16:03.526Z,10.80
2022-11-17T15:17:35.085Z,12.38
2022-11-17T15:19:06.651Z,11.73
2022-11-17T15:20:38.219Z,13.60
2022-11-17T15:22:09.781Z,13.00
2022-11-17T15:23:41.609Z,13.18
2022-11-17T15:25:13.161Z,12.23
2022-11-17T15:26:44.754Z,11.52
2022-11-17T15:28:21.451Z,14.43
2022-11-17T15:29:55.112Z,12.77
2022-11-17T15:31:26.741Z,12.93
2022-11-17T15:32:58.301Z,13.48
2022-11-17T15:34:29.902Z,13.35
2022-11-17T15:36:04.988Z,13.48
2022-11-17T15:37:37.236Z,12.95
2022-11-17T15:39:09.989Z,13.93
2022-11-17T15:40:41.562Z,15.82
2022-11-17T15:42:13.139Z,14.77
2022-11-17T15:43:44.915Z,16.00
2022-11-17T15:45:16.478Z,14.50
2022-11-17T15:46:48.262Z,13.13
2022-11-17T15:48:22.706Z,13.23
2022-11-17T15:49:54.278Z,15.53
2022-11-17T15:51:26.711Z,15.85
2022-11-17T15:53:04.169Z,15.90
2022-11-17T15:54:36.471Z,13.57
2022-11-17T15:56:09.602Z,15.35
2022-11-17T15:57:41.161Z,14.68
2022-11-17T15:59:12.800Z,15.50
2022-11-17T16:00:44.421Z,15.57
2022-11-17T16:02:16.011Z,14.60
2022-11-17T16:03:51.035Z,15.75
2022-11-17T16:05:22.601Z,16.05
2022-11-17T16:06:54.316Z,14.73
2022-11-17T16:08:25.920Z,14.05
2022-11-17T16:09:57.566Z,14.23
2022-11-17T16:11:31.779Z,14.53
2022-11-17T16:13:03.385Z,15.35
2022-11-17T16:14:35.030Z,15.40
2022-11-17T16:16:07.187Z,15.52
2022-11-17T16:17:38.839Z,14.77
2022-11-17T16:19:10.452Z,14.65
2022-11-17T16:20:42.189Z,17.80
2022-11-17T16:22:13.828Z,16.33
2022-11-17T16:23:53.335Z,16.65
2022-11-17T16:25:24.996Z,14.63
2022-11-17T16:26:56.737Z,15.93
2022-11-17T16:28:28.416Z,18.58
2022-11-17T16:30:00.040Z,15.60
2022-11-17T16:31:35.478Z,16.42
2022-11-17T16:33:13.822Z,15.65
2022-11-17T16:34:46.052Z,15.45
2022-11-17T16:36:18.217Z,16.60
2022-11-17T16:37:52.663Z,17.60
2022-11-17T16:39:24.410Z,18.23
2022-11-17T16:40:59.736Z,18.75
2022-11-17T16:42:31.506Z,19.77
2022-11-17T16:44:06.332Z,18.92
2022-11-17T16:45:45.065Z,19.75
2022-11-17T16:47:16.648Z,17.30
2022-11-17T16:48:49.103Z,18.15
2022-11-17T16:50:20.982Z,17.52
2022-11-17T16:51:53.058Z,18.40
2022-11-17T16:53:24.793Z,15.65
2022-11-17T16:55:01.754Z,16.52
2022-11-17T16:56:36.199Z,15.75
2022-11-17T16:58:07.847Z,18.25
2022-11-17T16:59:39.854Z,15.20
2022-11-17T17:01:19.562Z,12.30
2022-11-17T17:02:51.413Z,14.18
2022-11-17T17:04:23.167Z,12.10
2022-11-17T17:05:55.393Z,12.70
2022-11-17T17:07:27.535Z,13.25
2022-11-17T17:09:00.935Z,14.43
2022-11-17T17:10:34.311Z,13.45
2022-11-17T17:12:06.295Z,12.25
2022-11-17T17:13:38.999Z,13.05
2022-11-17T17:15:11.135Z,12.38
2022-11-17T17:16:44.905Z,13.00
2022-11-17T17:18:17.123Z,12.75
2022-11-17T17:19:49.000Z,12.43
2022-11-17T17:21:20.739Z,11.82
2022-11-17T17:22:53.625Z,11.68
2022-11-17T17:24:25.450Z,10.85
2022-11-17T17:26:03.864Z,12.35
2022-11-17T17:27:35.928Z,10.75
2022-11-17T17:29:08.064Z,11.18
2022-11-17T17:30:40.078Z,11.05
2022-11-17T17:32:11.845Z,11.30
2022-11-17T17:33:43.582Z,10.30
2022-11-17T17:35:15.470Z,10.68
2022-11-17T17:36:47.563Z,9.27
2022-11-17T17:38:19.769Z,10.45
2022-11-17T17:39:51.533Z,11.38
2022-11-17T17:41:58.415Z,8.60
2022-11-17T17:43:30.279Z,9.45
2022-11-17T17:45:03.848Z,8.75
2022-11-17T17:46:37.533Z,9.25
2022-11-17T17:48:09.792Z,8.68
2022-11-17T17:49:42.076Z,8.63
2022-11-17T17:51:22.057Z,9.50
2022-11-17T17:52:55.846Z,9.00
2022-11-17T17:54:27.554Z,8.77
2022-11-17T17:56:00.345Z,8.10
2022-11-17T17:57:34.045Z,8.20
2022-11-17T17:59:06.520Z,9.55
2022-11-17T18:00:39.205Z,8.65
2022-11-17T18:02:11.585Z,9.02
2022-11-17T18:03:44.499Z,7.68
2022-11-17T18:05:18.115Z,8.67
2022-11-17T18:06:50.774Z,8.38
2022-11-17T18:08:24.056Z,8.27
2022-11-17T18:09:56.543Z,7.78
2022-11-17T18:11:28.965Z,8.60
2022-11-17T18:13:10.631Z,7.88
2022-11-17T18:14:45.509Z,7.47
2022-11-17T18:16:28.080Z,6.90
2022-11-17T18:18:00.307Z,6.68
2022-11-17T18:19:33.397Z,8.18
2022-11-17T18:21:07.444Z,7.35
2022-11-17T18:22:39.785Z,7.90
2022-11-17T18:24:12.191Z,8.48
2022-11-17T18:25:44.455Z,6.68
2022-11-17T18:27:16.631Z,6.87
2022-11-17T18:29:02.236Z,7.07
2022-11-17T18:30:35.455Z,6.37
2022-11-17T18:32:07.740Z,7.00
2022-11-17T18:33:39.611Z,6.75
2022-11-17T18:35:13.213Z,7.38
2022-11-17T18:36:45.746Z,5.65
2022-11-17T18:38:19.524Z,6.60
2022-11-17T18:39:52.137Z,8.90
2022-11-17T18:41:24.968Z,6.95
2022-11-17T18:42:57.114Z,7.13
2022-11-17T18:44:29.141Z,6.40
2022-11-17T18:46:07.930Z,8.30
2022-11-17T18:47:40.333Z,6.80
2022-11-17T18:49:14.075Z,6.68
2022-11-17T18:51:17.241Z,6.20
2022-11-17T18:52:39.404Z,6.47
2022-11-17T18:54:13.443Z,6.88
2022-11-17T18:55:45.470Z,7.22
2022-11-17T18:57:17.981Z,6.20
2022-11-17T18:58:50.599Z,6.40
2022-11-17T19:00:22.975Z,5.95
2022-11-17T19:01:56.360Z,6.35
2022-11-17T19:03:28.905Z,8.45
2022-11-17T19:05:01.611Z,6.13
2022-11-17T19:06:33.800Z,6.18
2022-11-17T19:08:06.449Z,5.43
2022-11-17T19:09:39.022Z,5.63
2022-11-17T19:11:11.566Z,6.55
2022-11-17T19:12:43.657Z,5.45
2022-11-17T19:14:16.966Z,6.30
2022-11-17T19:15:49.791Z,5.40
2022-11-17T19:17:22.207Z,6.22
2022-11-17T19:18:55.769Z,6.00
2022-11-17T19:20:28.136Z,5.37
2022-11-17T19:22:00.338Z,5.17
2022-11-17T19:23:36.664Z,5.45
2022-11-17T19:25:09.204Z,6.75
2022-11-17T19:26:42.348Z,5.20
2022-11-17T19:28:14.562Z,5.47
2022-11-17T19:29:47.395Z,5.90
2022-11-17T19:31:20.282Z,5.80
2022-11-17T19:32:52.908Z,5.03
2022-11-17T19:34:25.420Z,5.00
2022-11-17T19:35:57.756Z,5.53
2022-11-17T19:37:31.582Z,5.85
2022-11-17T19:39:04.355Z,5.60
2022-11-17T19:40:36.910Z,5.47
2022-11-17T19:42:08.996Z,4.90
2022-11-17T19:43:45.383Z,5.18
2022-11-17T19:45:21.586Z,5.07
2022-11-17T19:46:54.068Z,6.18
2022-11-17T19:48:26.741Z,5.38
2022-11-17T19:50:00.186Z,4.70
2022-11-17T19:51:36.520Z,5.88
2022-11-17T19:53:11.274Z,5.80
2022-11-17T19:54:45.032Z,4.82
2022-11-17T19:56:17.715Z,5.25
2022-11-17T19:57:50.549Z,5.65
2022-11-17T19:59:23.088Z,4.85
2022-11-17T20:00:55.447Z,5.30
